createdAt,value
2017-04-06T00:00:34.539Z,11.50
2017-04-06T00:01:32.364Z,11.50
2017-04-06T00:02:30.095Z,11.50
2017-04-06T00:03:27.803Z,11.60
2017-04-06T00:04:25.554Z,11.50
2017-04-06T00:05:23.396Z,11.50
2017-04-06T00:06:22.197Z,11.60
2017-04-06T00:07:19.910Z,11.60
2017-04-06T00:08:17.631Z,11.50
2017-04-06T00:09:15.404Z,11.50
2017-04-06T00:10:13.507Z,11.50
2017-04-06T00:11:11.904Z,11.50
2017-04-06T00:12:09.660Z,11.50
2017-04-06T00:13:07.342Z,11.50
2017-04-06T00:14:05.633Z,11.50
2017-04-06T00:15:04.324Z,11.50
2017-04-06T00:16:02.048Z,11.60
2017-04-06T00:16:59.796Z,11.60
2017-04-06T00:17:57.449Z,11.60
2017-04-06T00:18:55.808Z,11.70
2017-04-06T00:19:53.516Z,11.70
2017-04-06T00:20:51.660Z,11.70
2017-04-06T00:21:49.383Z,11.60
2017-04-06T00:22:47.111Z,11.50
2017-04-06T00:23:44.824Z,11.50
2017-04-06T00:24:42.568Z,11.40
2017-04-06T00:25:40.639Z,11.30
2017-04-06T00:26:39.100Z,11.20
2017-04-06T00:27:36.773Z,11.20
2017-04-06T00:28:34.447Z,11.20
2017-04-06T00:29:32.143Z,11.20
2017-04-06T00:30:30.540Z,11.30
2017-04-06T00:31:28.799Z,11.20
2017-04-06T00:32:26.488Z,11.20
2017-04-06T00:33:24.192Z,11.20
2017-04-06T00:34:21.855Z,11.20
2017-04-06T00:35:19.607Z,11.20
2017-04-06T00:36:17.323Z,11.20
2017-04-06T00:37:15.022Z,11.20
2017-04-06T00:38:12.768Z,11.20
2017-04-06T00:39:11.418Z,11.20
2017-04-06T00:40:09.604Z,11.20
2017-04-06T00:41:07.266Z,11.30
2017-04-06T00:42:05.004Z,11.30
2017-04-06T00:43:02.752Z,11.30
2017-04-06T00:44:00.403Z,11.20
2017-04-06T00:44:58.076Z,11.10
2017-04-06T00:45:56.342Z,11.30
2017-04-06T00:46:54.077Z,11.30
2017-04-06T00:47:51.766Z,11.30
2017-04-06T00:48:49.436Z,11.30
2017-04-06T00:49:47.129Z,11.20
2017-04-06T00:50:44.844Z,11.20
2017-04-06T00:51:42.771Z,11.20
2017-04-06T00:52:40.411Z,11.20
2017-04-06T00:53:38.123Z,11.20
2017-04-06T00:54:35.783Z,11.10
2017-04-06T00:55:33.508Z,11.00
2017-04-06T00:56:32.124Z,11.00
2017-04-06T00:57:29.787Z,11.10
2017-04-06T00:58:27.522Z,11.00
2017-04-06T00:59:25.214Z,10.90
2017-04-06T01:00:23.112Z,10.90
2017-04-06T01:01:21.020Z,10.90
2017-04-06T01:02:18.663Z,10.90
2017-04-06T01:03:17.123Z,10.80
2017-04-06T01:04:14.844Z,10.80
2017-04-06T01:05:12.604Z,10.80
2017-04-06T01:06:10.283Z,10.80
2017-04-06T01:07:08.009Z,10.80
2017-04-06T01:08:05.761Z,10.80
2017-04-06T01:09:04.096Z,10.80
2017-04-06T01:10:01.766Z,10.80
2017-04-06T01:10:59.562Z,10.80
2017-04-06T01:11:57.242Z,11.00
2017-04-06T01:12:54.950Z,11.10
2017-04-06T01:13:52.605Z,11.10
2017-04-06T01:14:50.351Z,11.00
2017-04-06T01:15:48.080Z,11.10
2017-04-06T01:16:45.856Z,11.10
2017-04-06T01:17:43.496Z,11.20
2017-04-06T01:18:41.204Z,11.20
2017-04-06T01:19:39.568Z,11.20
2017-04-06T01:20:37.287Z,11.30
2017-04-06T01:21:34.976Z,11.30
2017-04-06T01:22:32.659Z,11.40
2017-04-06T01:23:30.448Z,11.30
2017-04-06T01:24:28.164Z,11.40
2017-04-06T01:25:27.108Z,11.40
2017-04-06T01:26:24.744Z,11.40
2017-04-06T01:27:22.451Z,11.50
2017-04-06T01:28:20.140Z,11.50
2017-04-06T01:29:17.794Z,11.50
2017-04-06T01:30:15.571Z,11.40
2017-04-06T01:31:13.241Z,11.40
2017-04-06T01:32:10.964Z,11.40
2017-04-06T01:33:08.650Z,11.40
2017-04-06T01:34:06.319Z,11.50
2017-04-06T01:35:04.109Z,11.50
2017-04-06T01:36:03.208Z,11.50
2017-04-06T01:37:01.240Z,11.60
2017-04-06T01:37:59.892Z,11.60
2017-04-06T01:38:57.595Z,11.60
2017-04-06T01:39:55.296Z,11.60
2017-04-06T01:40:53.033Z,11.60
2017-04-06T01:41:50.739Z,11.50
2017-04-06T01:42:48.931Z,11.40
2017-04-06T01:43:46.579Z,11.30
2017-04-06T01:44:44.226Z,11.30
2017-04-06T01:45:42.001Z,11.30
2017-04-06T01:46:39.648Z,11.30
2017-04-06T01:47:37.337Z,11.30
2017-04-06T01:48:34.990Z,11.40
2017-04-06T01:49:33.003Z,11.40
2017-04-06T01:50:30.736Z,11.40
2017-04-06T01:51:29.189Z,11.50
2017-04-06T01:52:26.837Z,11.50
2017-04-06T01:53:24.519Z,11.50
2017-04-06T01:54:22.243Z,11.40
2017-04-06T01:55:20.029Z,11.40
2017-04-06T01:56:17.688Z,11.50
2017-04-06T01:57:15.418Z,11.60
2017-04-06T01:58:13.091Z,11.50
2017-04-06T01:59:10.803Z,11.50
2017-04-06T02:00:08.587Z,11.40
2017-04-06T02:01:07.196Z,11.50
2017-04-06T02:02:04.877Z,11.50
2017-04-06T02:03:02.544Z,11.50
2017-04-06T02:04:00.232Z,11.50
2017-04-06T02:04:58.476Z,11.60
2017-04-06T02:05:56.655Z,11.70
2017-04-06T02:06:54.400Z,11.60
2017-04-06T02:07:52.104Z,11.50
2017-04-06T02:08:49.799Z,11.50
2017-04-06T02:09:47.448Z,11.40
2017-04-06T02:10:45.340Z,11.50
2017-04-06T02:11:43.040Z,11.60
2017-04-06T02:12:40.798Z,11.50
2017-04-06T02:13:38.428Z,11.50
2017-04-06T02:14:36.176Z,11.60
2017-04-06T02:15:33.967Z,11.60
2017-04-06T02:16:31.600Z,11.60
2017-04-06T02:17:29.273Z,11.50
2017-04-06T02:18:26.952Z,11.40
2017-04-06T02:19:24.668Z,11.40
2017-04-06T02:20:22.666Z,11.50
2017-04-06T02:21:20.348Z,11.60
2017-04-06T02:22:18.052Z,11.50
2017-04-06T02:23:15.709Z,11.60
2017-04-06T02:24:13.363Z,11.60
2017-04-06T02:25:11.097Z,11.60
2017-04-06T02:26:09.067Z,11.60
2017-04-06T02:27:06.740Z,11.70
2017-04-06T02:28:04.456Z,11.70
2017-04-06T02:29:02.189Z,11.70
2017-04-06T02:29:59.883Z,11.70
2017-04-06T02:30:57.583Z,11.70
2017-04-06T02:31:55.600Z,11.70
2017-04-06T02:32:53.307Z,11.70
2017-04-06T02:33:50.972Z,11.80
2017-04-06T02:34:48.672Z,11.80
2017-04-06T02:35:46.412Z,11.90
2017-04-06T02:36:44.144Z,11.80
2017-04-06T02:37:41.881Z,11.70
2017-04-06T02:38:40.564Z,11.70
2017-04-06T02:39:38.280Z,11.60
2017-04-06T02:40:36.056Z,11.60
2017-04-06T02:41:33.725Z,11.50
2017-04-06T02:42:31.455Z,11.40
2017-04-06T02:43:29.099Z,11.40
2017-04-06T02:44:26.828Z,11.40
2017-04-06T02:45:24.623Z,11.40
2017-04-06T02:46:22.313Z,11.40
2017-04-06T02:47:20.032Z,11.40
2017-04-06T02:48:24.406Z,11.60
2017-04-06T02:49:22.105Z,11.40
2017-04-06T02:50:19.825Z,11.40
2017-04-06T02:51:17.548Z,11.30
2017-04-06T02:52:15.225Z,11.30
2017-04-06T02:53:12.872Z,11.30
2017-04-06T02:54:11.287Z,11.30
2017-04-06T02:55:09.948Z,11.40
2017-04-06T02:56:08.141Z,11.40
2017-04-06T02:57:05.760Z,11.30
2017-04-06T02:58:03.728Z,11.30
2017-04-06T02:59:01.367Z,11.30
2017-04-06T02:59:59.008Z,11.50
2017-04-06T03:00:56.713Z,11.70
2017-04-06T03:01:54.451Z,11.60
2017-04-06T03:02:52.119Z,11.60
2017-04-06T03:03:51.125Z,11.80
2017-04-06T03:04:48.833Z,11.80
2017-04-06T03:05:47.255Z,11.70
2017-04-06T03:06:44.970Z,11.70
2017-04-06T03:07:42.660Z,11.60
2017-04-06T03:08:40.311Z,11.50
2017-04-06T03:09:38.048Z,11.50
2017-04-06T03:10:36.243Z,11.50
2017-04-06T03:11:33.942Z,11.50
2017-04-06T03:12:31.621Z,11.50
2017-04-06T03:13:29.332Z,11.50
2017-04-06T03:14:27.063Z,11.60
2017-04-06T03:15:24.795Z,11.60
2017-04-06T03:16:22.463Z,11.60
2017-04-06T03:17:20.196Z,11.60
2017-04-06T03:18:17.927Z,11.50
2017-04-06T03:19:15.587Z,11.50
2017-04-06T03:20:13.296Z,11.60
2017-04-06T03:21:11.093Z,11.60
2017-04-06T03:22:08.860Z,11.50
2017-04-06T03:23:06.556Z,11.50
2017-04-06T03:24:04.277Z,11.50
2017-04-06T03:25:02.308Z,11.40
2017-04-06T03:25:59.983Z,11.40
2017-04-06T03:26:57.636Z,11.40
2017-04-06T03:27:55.313Z,11.40
2017-04-06T03:28:53.480Z,11.30
2017-04-06T03:29:51.844Z,11.20
2017-04-06T03:30:49.605Z,11.20
2017-04-06T03:31:47.626Z,11.00
2017-04-06T03:32:45.312Z,10.90
2017-04-06T03:33:42.969Z,10.90
2017-04-06T03:34:40.636Z,10.80
2017-04-06T03:35:38.382Z,10.80
2017-04-06T03:36:36.051Z,10.80
2017-04-06T03:37:33.700Z,10.90
2017-04-06T03:38:31.379Z,10.80
2017-04-06T03:39:29.940Z,10.80
2017-04-06T03:40:28.392Z,10.80
2017-04-06T03:41:26.087Z,10.60
2017-04-06T03:42:23.776Z,10.50
2017-04-06T03:43:21.511Z,10.40
2017-04-06T03:44:19.947Z,10.40
2017-04-06T03:45:17.945Z,10.30
2017-04-06T03:46:15.564Z,10.30
2017-04-06T03:47:13.236Z,10.30
2017-04-06T03:48:10.971Z,10.30
2017-04-06T03:49:08.636Z,10.20
2017-04-06T03:50:06.815Z,10.20
2017-04-06T03:51:04.537Z,10.20
2017-04-06T03:52:02.283Z,10.20
2017-04-06T03:52:59.968Z,10.30
2017-04-06T03:53:57.996Z,10.30
2017-04-06T03:54:55.653Z,10.40
2017-04-06T03:55:54.284Z,10.50
2017-04-06T03:56:51.948Z,10.50
2017-04-06T03:57:49.624Z,10.60
2017-04-06T03:58:47.328Z,10.70
2017-04-06T03:59:45.024Z,10.70
2017-04-06T04:00:43.480Z,10.70
2017-04-06T04:01:41.151Z,10.70
2017-04-06T04:02:38.836Z,10.70
2017-04-06T04:03:36.548Z,10.70
2017-04-06T04:04:34.705Z,10.60
2017-04-06T04:05:33.507Z,10.60
2017-04-06T04:06:31.215Z,10.50
2017-04-06T04:07:28.883Z,10.50
2017-04-06T04:08:26.632Z,10.50
2017-04-06T04:09:24.392Z,10.50
2017-04-06T04:10:22.173Z,10.60
2017-04-06T04:11:20.808Z,10.60
2017-04-06T04:12:18.480Z,10.60
2017-04-06T04:13:16.171Z,10.60
2017-04-06T04:14:13.867Z,10.50
2017-04-06T04:15:12.691Z,10.40
2017-04-06T04:16:10.397Z,10.50
2017-04-06T04:17:08.096Z,10.50
2017-04-06T04:18:05.825Z,10.60
2017-04-06T04:19:03.520Z,10.60
2017-04-06T04:20:07.868Z,10.60
2017-04-06T04:21:06.171Z,10.60
2017-04-06T04:22:03.853Z,10.50
2017-04-06T04:23:01.505Z,10.50
2017-04-06T04:23:59.168Z,10.50
2017-04-06T04:24:56.844Z,10.40
2017-04-06T04:25:54.535Z,10.40
2017-04-06T04:26:53.035Z,10.30
2017-04-06T04:27:51.439Z,10.30
2017-04-06T04:28:49.900Z,10.40
2017-04-06T04:29:47.601Z,10.50
2017-04-06T04:30:45.601Z,10.60
2017-04-06T04:31:43.279Z,10.60
2017-04-06T04:32:40.975Z,10.60
2017-04-06T04:33:38.684Z,10.70
2017-04-06T04:34:36.369Z,10.60
2017-04-06T04:35:34.143Z,10.60
2017-04-06T04:36:31.848Z,10.60
2017-04-06T04:37:29.528Z,10.70
2017-04-06T04:38:27.179Z,10.90
2017-04-06T04:39:24.889Z,10.90
2017-04-06T04:40:22.708Z,10.80
2017-04-06T04:41:20.381Z,10.80
2017-04-06T04:42:18.041Z,10.80
2017-04-06T04:43:15.712Z,10.80
2017-04-06T04:44:13.374Z,10.80
2017-04-06T04:45:11.969Z,10.70
2017-04-06T04:46:09.696Z,10.80
2017-04-06T04:47:08.067Z,10.80
2017-04-06T04:48:05.781Z,10.80
2017-04-06T04:49:03.537Z,10.80
2017-04-06T04:50:02.204Z,10.90
2017-04-06T04:50:59.948Z,10.80
2017-04-06T04:51:57.637Z,10.90
2017-04-06T04:52:55.734Z,10.90
2017-04-06T04:53:54.080Z,11.00
2017-04-06T04:54:51.811Z,11.00
2017-04-06T04:55:49.507Z,11.00
2017-04-06T04:56:47.171Z,11.00
2017-04-06T04:57:44.926Z,11.00
2017-04-06T04:58:42.996Z,10.90
2017-04-06T04:59:40.660Z,10.90
2017-04-06T05:00:38.407Z,10.90
2017-04-06T05:01:36.126Z,10.90
2017-04-06T05:02:33.824Z,10.90
2017-04-06T05:03:31.501Z,10.80
2017-04-06T05:04:29.484Z,10.80
2017-04-06T05:05:28.113Z,10.70
2017-04-06T05:06:25.807Z,10.70
2017-04-06T05:07:24.157Z,10.70
2017-04-06T05:08:21.853Z,10.80
2017-04-06T05:09:19.563Z,10.80
2017-04-06T05:10:17.757Z,10.90
2017-04-06T05:11:16.124Z,10.90
2017-04-06T05:12:13.836Z,10.90
2017-04-06T05:13:11.495Z,11.00
2017-04-06T05:14:09.154Z,11.00
2017-04-06T05:15:06.909Z,11.10
2017-04-06T05:16:04.620Z,11.10
2017-04-06T05:17:02.304Z,11.20
2017-04-06T05:18:00.003Z,11.20
2017-04-06T05:18:58.236Z,11.00
2017-04-06T05:19:55.896Z,11.10
2017-04-06T05:20:53.606Z,11.10
2017-04-06T05:21:51.691Z,11.00
2017-04-06T05:22:49.401Z,11.10
2017-04-06T05:23:47.068Z,11.10
2017-04-06T05:24:44.693Z,11.10
2017-04-06T05:25:42.384Z,11.00
2017-04-06T05:26:40.017Z,10.90
2017-04-06T05:27:37.700Z,11.00
2017-04-06T05:28:35.463Z,11.10
2017-04-06T05:29:33.127Z,11.00
2017-04-06T05:30:31.332Z,10.90
2017-04-06T05:31:28.994Z,10.90
2017-04-06T05:32:26.852Z,10.90
2017-04-06T05:33:25.748Z,10.90
2017-04-06T05:34:23.403Z,10.90
2017-04-06T05:35:21.280Z,11.00
2017-04-06T05:36:19.012Z,10.90
2017-04-06T05:37:17.413Z,10.90
2017-04-06T05:38:15.917Z,10.90
2017-04-06T05:39:14.066Z,10.90
2017-04-06T05:40:12.103Z,10.80
2017-04-06T05:41:13.051Z,10.80
2017-04-06T05:42:10.755Z,10.80
2017-04-06T05:43:08.473Z,10.90
2017-04-06T05:44:06.292Z,10.80
2017-04-06T05:45:04.029Z,10.80
2017-04-06T05:46:03.254Z,10.80
2017-04-06T05:47:00.935Z,10.80
2017-04-06T05:47:59.496Z,10.80
2017-04-06T05:48:57.157Z,10.80
2017-04-06T05:49:54.820Z,10.80
2017-04-06T05:50:52.672Z,10.80
2017-04-06T05:51:50.535Z,10.80
2017-04-06T05:52:50.185Z,10.80
2017-04-06T05:53:48.348Z,10.80
2017-04-06T05:54:46.019Z,10.80
2017-04-06T05:55:44.182Z,10.80
2017-04-06T05:56:44.852Z,10.80
2017-04-06T05:57:42.524Z,10.80
2017-04-06T05:58:40.371Z,10.80
2017-04-06T05:59:38.212Z,10.70
2017-04-06T06:00:36.703Z,10.70
2017-04-06T06:01:34.899Z,10.80
2017-04-06T06:02:32.656Z,10.80
2017-04-06T06:03:30.575Z,10.80
2017-04-06T06:04:28.256Z,10.80
2017-04-06T06:05:27.525Z,10.80
2017-04-06T06:06:25.181Z,10.70
2017-04-06T06:07:22.799Z,10.80
2017-04-06T06:08:20.487Z,10.80
2017-04-06T06:09:18.244Z,10.80
2017-04-06T06:10:17.394Z,10.80
2017-04-06T06:11:15.075Z,10.80
2017-04-06T06:12:12.832Z,10.70
2017-04-06T06:13:10.648Z,10.60
2017-04-06T06:14:08.608Z,10.70
2017-04-06T06:15:06.581Z,10.60
2017-04-06T06:16:05.000Z,10.50
2017-04-06T06:17:03.810Z,10.50
2017-04-06T06:18:01.671Z,10.70
2017-04-06T06:18:59.528Z,10.80
2017-04-06T06:19:57.805Z,10.70
2017-04-06T06:20:55.472Z,10.60
2017-04-06T06:21:53.233Z,10.80
2017-04-06T06:22:50.976Z,10.70
2017-04-06T06:23:48.625Z,10.60
2017-04-06T06:24:46.508Z,10.50
2017-04-06T06:25:44.284Z,10.50
2017-04-06T06:26:42.159Z,10.60
2017-04-06T06:27:39.787Z,10.70
2017-04-06T06:28:37.735Z,10.60
2017-04-06T06:29:36.398Z,10.60
2017-04-06T06:30:34.108Z,10.60
2017-04-06T06:31:33.445Z,10.60
2017-04-06T06:32:31.134Z,10.60
2017-04-06T06:33:28.795Z,10.60
2017-04-06T06:34:26.928Z,10.70
2017-04-06T06:35:24.735Z,10.80
2017-04-06T06:36:22.588Z,10.80
2017-04-06T06:37:20.280Z,10.90
2017-04-06T06:38:18.104Z,10.90
2017-04-06T06:39:15.764Z,11.00
2017-04-06T06:40:13.851Z,11.10
2017-04-06T06:41:12.259Z,11.20
2017-04-06T06:42:09.973Z,11.30
2017-04-06T06:43:07.642Z,11.30
2017-04-06T06:44:05.608Z,11.30
2017-04-06T06:45:03.386Z,11.30
2017-04-06T06:46:02.008Z,11.30
2017-04-06T06:46:59.713Z,11.40
2017-04-06T06:47:57.365Z,11.40
2017-04-06T06:48:55.640Z,11.40
2017-04-06T06:49:53.300Z,11.40
2017-04-06T06:50:51.022Z,11.50
2017-04-06T06:51:48.683Z,11.50
2017-04-06T06:52:47.345Z,11.50
2017-04-06T06:53:45.037Z,11.50
2017-04-06T06:54:43.420Z,11.50
2017-04-06T06:55:41.407Z,11.50
2017-04-06T06:56:39.089Z,11.50
2017-04-06T06:57:36.736Z,11.50
2017-04-06T06:58:34.396Z,11.50
2017-04-06T06:59:32.125Z,11.50
2017-04-06T07:00:29.905Z,11.40
2017-04-06T07:01:27.919Z,11.30
2017-04-06T07:02:25.625Z,11.40
2017-04-06T07:03:31.770Z,11.40
2017-04-06T07:04:29.520Z,11.40
2017-04-06T07:05:27.236Z,11.50
2017-04-06T07:06:24.932Z,11.40
2017-04-06T07:07:22.709Z,11.40
2017-04-06T07:08:20.412Z,11.50
2017-04-06T07:09:18.104Z,11.50
2017-04-06T07:10:16.299Z,11.40
2017-04-06T07:11:14.065Z,11.30
2017-04-06T07:12:11.745Z,11.20
2017-04-06T07:13:10.117Z,11.20
2017-04-06T07:14:07.803Z,11.20
2017-04-06T07:15:05.558Z,11.30
2017-04-06T07:16:04.630Z,11.30
2017-04-06T07:17:02.285Z,11.20
2017-04-06T07:17:59.945Z,11.20
2017-04-06T07:18:57.599Z,11.10
2017-04-06T07:19:55.280Z,11.00
2017-04-06T07:20:53.056Z,10.90
2017-04-06T07:21:50.772Z,10.90
2017-04-06T07:22:48.460Z,10.90
2017-04-06T07:23:46.168Z,10.90
2017-04-06T07:24:43.816Z,10.80
2017-04-06T07:25:41.848Z,10.90
2017-04-06T07:26:39.565Z,11.00
2017-04-06T07:27:37.179Z,10.90
2017-04-06T07:28:34.868Z,11.00
2017-04-06T07:29:32.521Z,11.10
2017-04-06T07:30:30.880Z,11.20
2017-04-06T07:31:28.563Z,11.30
2017-04-06T07:32:26.306Z,11.20
2017-04-06T07:33:24.019Z,11.30
2017-04-06T07:34:21.696Z,11.20
2017-04-06T07:35:19.752Z,11.20
2017-04-06T07:36:17.996Z,11.20
2017-04-06T07:37:15.704Z,11.30
2017-04-06T07:38:13.364Z,11.20
2017-04-06T07:39:11.091Z,11.30
2017-04-06T07:40:08.897Z,11.30
2017-04-06T07:41:06.888Z,11.40
2017-04-06T07:42:04.588Z,11.60
2017-04-06T07:43:02.370Z,11.50
2017-04-06T07:44:00.125Z,11.50
2017-04-06T07:44:57.790Z,11.50
2017-04-06T07:45:55.464Z,11.50
2017-04-06T07:46:53.619Z,11.50
2017-04-06T07:47:53.429Z,11.50
2017-04-06T07:48:51.083Z,11.50
2017-04-06T07:49:48.744Z,11.60
2017-04-06T07:50:46.499Z,11.60
2017-04-06T07:51:44.140Z,11.60
2017-04-06T07:52:41.852Z,11.70
2017-04-06T07:53:39.852Z,11.80
2017-04-06T07:54:37.538Z,11.80
2017-04-06T07:55:35.272Z,11.90
2017-04-06T07:56:32.948Z,12.00
2017-04-06T07:57:30.656Z,12.00
2017-04-06T07:58:28.315Z,12.10
2017-04-06T07:59:26.378Z,12.10
2017-04-06T08:00:27.008Z,12.10
2017-04-06T08:01:24.677Z,12.10
2017-04-06T08:02:22.432Z,12.20
2017-04-06T08:03:20.104Z,12.30
2017-04-06T08:04:17.832Z,12.10
2017-04-06T08:05:15.596Z,11.90
2017-04-06T08:06:13.303Z,11.90
2017-04-06T08:07:10.969Z,11.90
2017-04-06T08:08:08.668Z,11.90
2017-04-06T08:09:06.370Z,11.90
2017-04-06T08:10:04.227Z,12.00
2017-04-06T08:11:01.908Z,12.00
2017-04-06T08:11:59.579Z,12.00
2017-04-06T08:12:57.284Z,12.00
2017-04-06T08:13:55.007Z,12.00
2017-04-06T08:14:52.704Z,12.00
2017-04-06T08:15:50.951Z,12.00
2017-04-06T08:16:49.212Z,12.10
2017-04-06T08:17:46.894Z,12.20
2017-04-06T08:18:44.559Z,12.30
2017-04-06T08:19:42.240Z,12.30
2017-04-06T08:20:40.452Z,12.40
2017-04-06T08:21:39.000Z,12.20
2017-04-06T08:22:37.029Z,12.20
2017-04-06T08:23:34.751Z,12.30
2017-04-06T08:24:32.411Z,12.40
2017-04-06T08:25:30.152Z,12.50
2017-04-06T08:26:27.984Z,12.40
2017-04-06T08:27:25.660Z,12.50
2017-04-06T08:28:23.941Z,12.40
2017-04-06T08:29:21.640Z,12.40
2017-04-06T08:30:19.469Z,12.50
2017-04-06T08:31:17.147Z,12.50
2017-04-06T08:32:14.855Z,12.60
2017-04-06T08:33:12.517Z,12.70
2017-04-06T08:34:10.175Z,12.80
2017-04-06T08:35:08.684Z,12.90
2017-04-06T08:36:06.342Z,13.10
2017-04-06T08:37:04.304Z,13.20
2017-04-06T08:38:02.004Z,13.20
2017-04-06T08:38:59.660Z,13.50
2017-04-06T08:39:57.349Z,13.60
2017-04-06T08:40:55.100Z,13.70
2017-04-06T08:41:52.791Z,13.70
2017-04-06T08:42:50.532Z,13.80
2017-04-06T08:43:48.283Z,13.90
2017-04-06T08:44:45.965Z,13.90
2017-04-06T08:45:43.744Z,13.80
2017-04-06T08:46:41.552Z,13.70
2017-04-06T08:47:39.204Z,13.70
2017-04-06T08:48:37.200Z,13.60
2017-04-06T08:49:34.876Z,13.50
2017-04-06T08:50:33.298Z,13.50
2017-04-06T08:51:30.931Z,13.50
2017-04-06T08:52:29.486Z,13.40
2017-04-06T08:53:27.172Z,13.50
2017-04-06T08:54:24.892Z,13.50
2017-04-06T08:55:23.519Z,13.50
2017-04-06T08:56:21.255Z,13.70
2017-04-06T08:57:18.956Z,13.80
2017-04-06T08:58:16.617Z,13.80
2017-04-06T08:59:14.336Z,14.00
2017-04-06T09:00:12.150Z,14.10
2017-04-06T09:01:09.808Z,14.20
2017-04-06T09:02:07.552Z,14.30
2017-04-06T09:03:05.260Z,14.20
2017-04-06T09:04:03.476Z,14.00
2017-04-06T09:05:01.151Z,14.00
2017-04-06T09:05:58.907Z,14.10
2017-04-06T09:06:56.577Z,14.30
2017-04-06T09:07:54.282Z,14.30
2017-04-06T09:08:51.967Z,14.20
2017-04-06T09:09:49.983Z,14.20
2017-04-06T09:10:47.729Z,14.30
2017-04-06T09:11:45.408Z,14.30
2017-04-06T09:12:43.072Z,14.20
2017-04-06T09:13:40.717Z,14.20
2017-04-06T09:14:38.447Z,14.20
2017-04-06T09:15:36.508Z,14.30
2017-04-06T09:16:34.687Z,14.30
2017-04-06T09:17:32.371Z,14.30
2017-04-06T09:18:30.100Z,14.30
2017-04-06T09:19:27.823Z,14.50
2017-04-06T09:20:25.580Z,14.50
2017-04-06T09:21:23.256Z,14.60
2017-04-06T09:22:20.964Z,14.50
2017-04-06T09:23:18.717Z,14.60
2017-04-06T09:24:16.419Z,14.60
2017-04-06T09:25:14.472Z,14.60
2017-04-06T09:26:12.152Z,14.60
2017-04-06T09:27:09.844Z,14.50
2017-04-06T09:28:07.521Z,14.70
2017-04-06T09:29:05.213Z,14.80
2017-04-06T09:30:03.000Z,14.90
2017-04-06T09:31:00.660Z,15.00
2017-04-06T09:31:58.352Z,15.00
2017-04-06T09:32:56.055Z,15.10
2017-04-06T09:33:53.783Z,15.20
2017-04-06T09:34:52.505Z,15.40
2017-04-06T09:35:50.272Z,15.40
2017-04-06T09:36:47.920Z,15.40
2017-04-06T09:37:45.623Z,15.40
2017-04-06T09:38:43.301Z,15.40
2017-04-06T09:39:42.092Z,15.40
2017-04-06T09:40:40.071Z,15.40
2017-04-06T09:41:37.753Z,15.40
2017-04-06T09:42:35.409Z,15.30
2017-04-06T09:43:33.134Z,15.30
2017-04-06T09:44:30.808Z,15.30
2017-04-06T09:45:28.656Z,15.30
2017-04-06T09:46:26.327Z,15.20
2017-04-06T09:47:24.107Z,15.20
2017-04-06T09:48:21.832Z,15.10
2017-04-06T09:49:19.520Z,15.20
2017-04-06T09:50:17.700Z,15.10
2017-04-06T09:51:15.351Z,14.90
2017-04-06T09:52:13.016Z,14.70
2017-04-06T09:53:10.661Z,14.80
2017-04-06T09:54:08.361Z,14.80
2017-04-06T09:55:06.237Z,14.80
2017-04-06T09:56:04.080Z,14.90
2017-04-06T09:57:02.903Z,14.90
2017-04-06T09:58:00.632Z,14.80
2017-04-06T09:58:58.355Z,14.70
2017-04-06T09:59:56.060Z,14.60
2017-04-06T10:00:54.082Z,14.50
2017-04-06T10:01:52.248Z,14.60
2017-04-06T10:02:51.384Z,14.50
2017-04-06T10:03:49.031Z,14.60
2017-04-06T10:04:46.724Z,14.50
2017-04-06T10:05:44.545Z,14.60
2017-04-06T10:06:42.219Z,14.60
2017-04-06T10:07:40.393Z,14.70
2017-04-06T10:08:38.074Z,14.80
2017-04-06T10:09:36.169Z,14.90
2017-04-06T10:10:33.887Z,14.80
2017-04-06T10:11:32.456Z,14.70
2017-04-06T10:12:30.143Z,14.80
2017-04-06T10:13:27.836Z,14.70
2017-04-06T10:14:25.528Z,14.70
2017-04-06T10:15:23.826Z,14.60
2017-04-06T10:16:21.609Z,14.50
2017-04-06T10:17:19.264Z,14.40
2017-04-06T10:18:17.028Z,14.30
2017-04-06T10:19:14.700Z,14.10
2017-04-06T10:20:12.444Z,14.20
2017-04-06T10:21:10.176Z,14.20
2017-04-06T10:22:07.923Z,14.10
2017-04-06T10:23:05.640Z,14.10
2017-04-06T10:24:03.333Z,14.00
2017-04-06T10:25:01.092Z,14.00
2017-04-06T10:25:58.831Z,14.10
2017-04-06T10:26:56.508Z,14.20
2017-04-06T10:27:54.180Z,14.20
2017-04-06T10:28:51.854Z,14.30
2017-04-06T10:29:49.587Z,14.20
2017-04-06T10:30:47.860Z,14.30
2017-04-06T10:31:45.508Z,14.30
2017-04-06T10:32:43.168Z,14.40
2017-04-06T10:33:40.850Z,14.40
2017-04-06T10:34:38.535Z,14.50
2017-04-06T10:35:36.356Z,14.80
2017-04-06T10:36:34.011Z,15.10
2017-04-06T10:37:31.727Z,15.30
2017-04-06T10:38:29.390Z,15.30
2017-04-06T10:39:27.126Z,15.40
2017-04-06T10:40:28.083Z,15.20
2017-04-06T10:41:25.817Z,15.10
2017-04-06T10:42:23.502Z,15.10
2017-04-06T10:43:21.197Z,15.10
2017-04-06T10:44:18.876Z,15.10
2017-04-06T10:45:16.636Z,15.10
2017-04-06T10:46:14.592Z,15.20
2017-04-06T10:47:12.267Z,15.30
2017-04-06T10:48:09.960Z,15.30
2017-04-06T10:49:07.612Z,15.30
2017-04-06T10:50:05.421Z,15.20
2017-04-06T10:51:03.833Z,15.20
2017-04-06T10:52:01.505Z,15.00
2017-04-06T10:52:59.171Z,14.80
2017-04-06T10:53:56.916Z,14.70
2017-04-06T10:54:54.624Z,14.60
2017-04-06T10:55:52.376Z,14.80
2017-04-06T10:56:50.039Z,14.90
2017-04-06T10:57:47.688Z,15.00
2017-04-06T10:58:45.357Z,15.00
2017-04-06T10:59:43.048Z,15.00
2017-04-06T11:00:41.717Z,15.20
2017-04-06T11:01:39.394Z,15.30
2017-04-06T11:02:37.104Z,15.20
2017-04-06T11:03:34.793Z,15.20
2017-04-06T11:04:32.488Z,15.20
2017-04-06T11:05:30.830Z,15.20
2017-04-06T11:06:28.912Z,15.30
2017-04-06T11:07:26.624Z,15.30
2017-04-06T11:08:24.333Z,15.40
2017-04-06T11:09:22.066Z,15.60
2017-04-06T11:10:20.300Z,15.60
2017-04-06T11:11:17.992Z,15.50
2017-04-06T11:12:15.695Z,15.40
2017-04-06T11:13:13.360Z,15.40
2017-04-06T11:14:11.012Z,15.20
2017-04-06T11:15:08.882Z,15.20
2017-04-06T11:16:06.611Z,15.10
2017-04-06T11:17:04.275Z,15.20
2017-04-06T11:18:01.945Z,15.20
2017-04-06T11:18:59.607Z,15.30
2017-04-06T11:19:57.281Z,15.40
2017-04-06T11:20:56.931Z,15.40
2017-04-06T11:21:54.618Z,15.40
2017-04-06T11:22:53.131Z,15.40
2017-04-06T11:23:50.833Z,15.30
2017-04-06T11:24:48.592Z,15.20
2017-04-06T11:25:46.344Z,15.10
2017-04-06T11:26:44.012Z,15.10
2017-04-06T11:27:41.677Z,15.10
2017-04-06T11:28:39.348Z,15.10
2017-04-06T11:29:37.068Z,15.20
2017-04-06T11:30:35.784Z,15.10
2017-04-06T11:31:33.519Z,15.00
2017-04-06T11:32:31.829Z,15.00
2017-04-06T11:33:29.568Z,14.90
2017-04-06T11:34:27.291Z,14.90
2017-04-06T11:35:25.013Z,15.00
2017-04-06T11:36:23.132Z,15.00
2017-04-06T11:37:20.855Z,15.20
2017-04-06T11:38:18.591Z,15.20
2017-04-06T11:39:16.284Z,15.30
2017-04-06T11:40:14.043Z,15.20
2017-04-06T11:41:11.755Z,15.20
2017-04-06T11:42:09.784Z,15.00
2017-04-06T11:43:07.549Z,14.90
2017-04-06T11:44:05.324Z,14.90
2017-04-06T11:45:03.170Z,14.80
2017-04-06T11:46:01.191Z,14.80
2017-04-06T11:46:58.851Z,14.80
2017-04-06T11:47:56.573Z,14.70
2017-04-06T11:48:54.255Z,14.70
2017-04-06T11:49:51.957Z,14.70
2017-04-06T11:50:50.053Z,14.70
2017-04-06T11:51:48.368Z,14.60
2017-04-06T11:52:46.113Z,14.50
2017-04-06T11:53:44.600Z,14.40
2017-04-06T11:54:42.307Z,14.30
2017-04-06T11:55:40.114Z,14.30
2017-04-06T11:56:37.872Z,14.40
2017-04-06T11:57:36.777Z,14.40
2017-04-06T11:58:34.445Z,14.50
2017-04-06T11:59:32.103Z,14.60
2017-04-06T12:00:30.243Z,14.70
2017-04-06T12:01:27.960Z,14.80
2017-04-06T12:02:25.683Z,14.90
2017-04-06T12:03:23.360Z,14.80
2017-04-06T12:04:21.064Z,15.00
2017-04-06T12:05:18.785Z,14.90
2017-04-06T12:06:16.760Z,14.70
2017-04-06T12:07:14.490Z,14.80
2017-04-06T12:08:12.548Z,14.90
2017-04-06T12:09:10.378Z,15.00
2017-04-06T12:10:08.512Z,15.00
2017-04-06T12:11:06.200Z,14.90
2017-04-06T12:12:03.860Z,14.70
2017-04-06T12:13:01.576Z,14.60
2017-04-06T12:13:59.312Z,14.50
2017-04-06T12:14:57.037Z,14.40
2017-04-06T12:15:55.052Z,14.40
2017-04-06T12:16:52.752Z,14.40
2017-04-06T12:17:51.334Z,14.30
2017-04-06T12:18:48.980Z,14.30
2017-04-06T12:19:47.000Z,14.20
2017-04-06T12:20:44.700Z,14.20
2017-04-06T12:21:42.887Z,14.00
2017-04-06T12:22:40.539Z,14.00
2017-04-06T12:23:38.257Z,14.10
2017-04-06T12:24:35.957Z,14.20
2017-04-06T12:25:33.656Z,14.20